Time;durP1;ratioP1;P1;durP2;ratioP2;P2;SDS_P1;SDS_P2;PMS_P1;PMS_P2;Temp;Humidity;BMP_temperature;BMP_pressure;BME280_temperature;BME280_humidity;BME280_pressure;Samples;Min_cycle;Max_cycle;Signal;HPM_P1;HPM_P2
2021/10/07 00:01:27;;;;;;;2.13;1.40;;;13.40;40.30;;;;;;10414639;28;20239;-75
2021/10/07 00:06:30;;;;;;;2.30;1.20;;;13.40;40.40;;;;;;10411059;28;20359;-75
2021/10/07 00:11:35;;;;;;;1.70;1.60;;;13.50;40.30;;;;;;10411527;28;20234;-75
2021/10/07 00:16:39;;;;;;;1.30;1.20;;;13.40;40.30;;;;;;10422463;28;20289;-74
2021/10/07 00:21:43;;;;;;;1.30;1.20;;;13.40;40.40;;;;;;10424791;28;20258;-74
2021/10/07 00:26:48;;;;;;;1.10;1.10;;;13.40;40.20;;;;;;10419884;28;20226;-75
2021/10/07 00:31:55;;;;;;;1.57;1.40;;;13.40;40.20;;;;;;10410952;28;20229;-75
2021/10/07 00:37:06;;;;;;;1.40;1.30;;;13.40;40.10;;;;;;10409179;28;20242;-74
2021/10/07 00:42:11;;;;;;;1.70;1.30;;;13.40;40.00;;;;;;10415589;28;20678;-75
2021/10/07 00:47:18;;;;;;;3.23;1.50;;;13.40;40.10;;;;;;10423818;28;20222;-75
2021/10/07 00:52:21;;;;;;;2.03;1.50;;;13.30;40.00;;;;;;10420012;28;20244;-75
2021/10/07 00:57:24;;;;;;;1.13;1.13;;;13.30;39.90;;;;;;10427776;28;20229;-75
2021/10/07 01:02:29;;;;;;;1.50;1.40;;;13.30;39.80;;;;;;10416239;28;20304;-74
2021/10/07 01:07:32;;;;;;;1.63;1.43;;;13.30;40.00;;;;;;10412967;28;20229;-75
2021/10/07 01:12:36;;;;;;;1.63;1.53;;;13.30;39.80;;;;;;10410912;28;20233;-75
2021/10/07 01:17:41;;;;;;;1.97;1.30;;;13.20;39.60;;;;;;10413897;28;20229;-75
2021/10/07 01:22:45;;;;;;;1.13;1.13;;;13.10;39.90;;;;;;10416810;28;20260;-75
2021/10/07 01:27:56;;;;;;;1.50;1.40;;;13.00;40.00;;;;;;10413368;28;20313;-75
2021/10/07 01:33:00;;;;;;;2.30;1.70;;;13.00;40.20;;;;;;10421220;28;20252;-75
2021/10/07 01:38:05;;;;;;;1.97;1.50;;;13.00;40.00;;;;;;10408445;28;20248;-76
2021/10/07 01:43:09;;;;;;;1.77;1.30;;;12.90;40.20;;;;;;10417660;28;20305;-75
2021/10/07 01:48:12;;;;;;;1.83;1.73;;;12.90;40.10;;;;;;10403269;28;20231;-75
2021/10/07 01:53:17;;;;;;;1.73;1.63;;;12.90;40.10;;;;;;10411032;28;20225;-74
2021/10/07 01:58:21;;;;;;;2.17;1.60;;;12.80;40.00;;;;;;10408043;28;20236;-74
2021/10/07 02:03:25;;;;;;;1.97;1.60;;;12.70;39.90;;;;;;10408847;28;20229;-74
2021/10/07 02:08:29;;;;;;;1.60;1.50;;;12.60;40.10;;;;;;10406139;28;20229;-76
2021/10/07 02:13:33;;;;;;;1.40;1.30;;;12.60;40.40;;;;;;10419437;28;20251;-74
2021/10/07 02:18:36;;;;;;;2.80;1.63;;;12.60;40.30;;;;;;10417783;28;20358;-74
2021/10/07 02:23:41;;;;;;;1.73;1.40;;;12.60;40.50;;;;;;10412537;28;20226;-75
2021/10/07 02:28:44;;;;;;;1.87;1.40;;;12.60;40.60;;;;;;10412117;28;20244;-74
2021/10/07 02:33:49;;;;;;;2.23;1.73;;;12.60;40.40;;;;;;10403638;28;20229;-75
2021/10/07 02:38:53;;;;;;;1.70;1.60;;;12.60;40.50;;;;;;10424125;28;20579;-75
2021/10/07 02:43:57;;;;;;;2.00;1.80;;;12.70;40.60;;;;;;10404463;28;20342;-74
2021/10/07 02:49:00;;;;;;;1.63;1.53;;;12.60;40.30;;;;;;10424312;28;20226;-74
2021/10/07 02:54:05;;;;;;;1.40;1.30;;;12.60;40.40;;;;;;10413485;28;20240;-74
2021/10/07 02:59:08;;;;;;;2.10;1.90;;;12.60;40.70;;;;;;10400268;28;20222;-74
2021/10/07 03:04:11;;;;;;;1.90;1.70;;;12.60;40.70;;;;;;10420173;28;20235;-74
2021/10/07 03:09:16;;;;;;;1.87;1.53;;;12.60;40.70;;;;;;10425409;28;20237;-74
2021/10/07 03:14:19;;;;;;;3.27;2.03;;;12.70;41.00;;;;;;10419060;28;20225;-74
2021/10/07 03:19:22;;;;;;;2.37;1.80;;;12.70;40.90;;;;;;10420819;28;20592;-75
2021/10/07 03:24:27;;;;;;;2.23;1.60;;;12.70;40.90;;;;;;10420286;28;20755;-75
2021/10/07 03:29:31;;;;;;;2.67;1.87;;;12.70;41.00;;;;;;10419012;28;20228;-75
2021/10/07 03:34:34;;;;;;;2.00;1.90;;;12.70;41.00;;;;;;10417815;28;20314;-74
2021/10/07 03:39:39;;;;;;;2.20;2.00;;;12.70;41.00;;;;;;10415063;28;20230;-75
2021/10/07 03:44:42;;;;;;;1.83;1.73;;;12.70;41.40;;;;;;10415632;28;20226;-75
2021/10/07 03:49:45;;;;;;;1.67;1.57;;;12.70;41.90;;;;;;10419325;28;20225;-74
2021/10/07 03:54:50;;;;;;;2.00;1.90;;;12.70;41.90;;;;;;10421905;28;20233;-74
2021/10/07 03:59:53;;;;;;;1.80;1.70;;;12.80;41.60;;;;;;10412526;28;20226;-75
2021/10/07 04:04:57;;;;;;;2.00;1.77;;;12.80;41.40;;;;;;10422882;28;20652;-75
2021/10/07 04:10:01;;;;;;;2.10;2.00;;;12.80;41.40;;;;;;10413288;28;20216;-74
2021/10/07 04:15:05;;;;;;;2.60;2.03;;;12.80;41.80;;;;;;10415891;28;20235;-75
2021/10/07 04:20:10;;;;;;;2.03;1.70;;;12.90;41.60;;;;;;10407650;28;21322;-75
2021/10/07 04:25:14;;;;;;;2.73;1.97;;;12.90;41.60;;;;;;10401854;28;20702;-75
2021/10/07 04:30:18;;;;;;;1.83;1.67;;;12.90;41.80;;;;;;10399491;28;20236;-75
2021/10/07 04:35:21;;;;;;;3.33;1.70;;;12.90;41.60;;;;;;10392567;28;21047;-75
2021/10/07 04:40:26;;;;;;;2.20;1.70;;;13.00;41.80;;;;;;10406342;28;20230;-74
2021/10/07 04:45:29;;;;;;;1.50;1.40;;;12.90;41.70;;;;;;10396962;28;20241;-75
2021/10/07 04:50:33;;;;;;;1.80;1.70;;;12.90;41.60;;;;;;10405130;28;20333;-75
2021/10/07 04:55:37;;;;;;;2.17;1.77;;;12.90;41.70;;;;;;10399515;28;20233;-74
2021/10/07 05:00:41;;;;;;;2.13;1.93;;;12.90;42.00;;;;;;10397178;28;20970;-74
2021/10/07 05:05:45;;;;;;;2.60;1.90;;;12.90;41.80;;;;;;10395630;28;20226;-75
2021/10/07 05:10:49;;;;;;;2.10;1.90;;;12.90;42.10;;;;;;10398840;28;20237;-74
2021/10/07 05:15:54;;;;;;;8.23;5.57;;;13.00;42.50;;;;;;10395991;28;20226;-75
2021/10/07 05:20:57;;;;;;;9.00;5.73;;;13.00;42.30;;;;;;10399983;28;20263;-75
2021/10/07 05:26:03;;;;;;;8.57;5.27;;;13.00;42.30;;;;;;10401004;28;20954;-75
2021/10/07 05:31:06;;;;;;;5.37;4.47;;;13.00;42.60;;;;;;10396936;28;20249;-75
2021/10/07 05:36:09;;;;;;;4.37;3.43;;;13.10;42.70;;;;;;10392343;28;20234;-75
2021/10/07 05:41:14;;;;;;;4.33;2.70;;;13.10;42.70;;;;;;10400308;28;20218;-74
2021/10/07 05:46:17;;;;;;;5.80;4.97;;;13.30;42.80;;;;;;10393472;28;20228;-74
2021/10/07 05:51:21;;;;;;;4.27;3.87;;;13.30;42.20;;;;;;10391393;28;20221;-76
2021/10/07 05:56:26;;;;;;;4.30;3.30;;;13.30;42.00;;;;;;10389990;28;20234;-75
2021/10/07 06:01:29;;;;;;;2.50;2.30;;;13.20;42.70;;;;;;10401510;28;20228;-75
2021/10/07 06:06:33;;;;;;;2.80;2.50;;;13.30;42.80;;;;;;10395619;28;20226;-74
2021/10/07 06:11:38;;;;;;;3.20;2.93;;;13.30;42.70;;;;;;10396466;28;20225;-74
2021/10/07 06:16:42;;;;;;;6.27;4.10;;;13.30;42.80;;;;;;10418810;28;20225;-75
2021/10/07 06:21:45;;;;;;;5.07;4.67;;;13.40;42.70;;;;;;10407646;28;20586;-75
2021/10/07 06:26:50;;;;;;;6.27;3.90;;;13.50;42.80;;;;;;10403518;28;20243;-75
2021/10/07 06:31:54;;;;;;;4.10;3.50;;;13.50;43.00;;;;;;10405229;28;20229;-74
2021/10/07 06:36:57;;;;;;;3.60;3.30;;;13.60;42.70;;;;;;10396031;28;20276;-74
2021/10/07 06:42:03;;;;;;;3.50;3.20;;;13.60;42.60;;;;;;10398931;28;20360;-74
2021/10/07 06:47:06;;;;;;;3.17;2.87;;;13.70;42.90;;;;;;10407596;28;20236;-75
2021/10/07 06:52:09;;;;;;;3.23;2.73;;;13.70;42.60;;;;;;10405141;28;20244;-74
2021/10/07 06:57:14;;;;;;;5.37;3.20;;;13.80;42.90;;;;;;10401391;28;20268;-74
2021/10/07 07:02:17;;;;;;;4.67;3.17;;;13.80;43.00;;;;;;10400926;28;20222;-74
2021/10/07 07:07:21;;;;;;;3.30;3.00;;;13.80;42.70;;;;;;10392410;28;20323;-72
2021/10/07 07:12:26;;;;;;;3.10;2.80;;;13.90;42.80;;;;;;10380103;28;20280;-73
2021/10/07 07:17:29;;;;;;;2.80;2.60;;;13.90;43.00;;;;;;10390380;28;20230;-73
2021/10/07 07:22:32;;;;;;;2.60;2.40;;;14.00;42.70;;;;;;10395107;28;20291;-74
2021/10/07 07:27:37;;;;;;;2.30;2.03;;;14.00;42.70;;;;;;10409073;28;20721;-73
2021/10/07 07:32:41;;;;;;;2.37;2.17;;;14.10;43.10;;;;;;10389308;28;20722;-73
2021/10/07 07:37:44;;;;;;;2.70;2.37;;;14.10;42.70;;;;;;10390308;28;20218;-73
2021/10/07 07:42:49;;;;;;;2.30;2.10;;;14.20;42.80;;;;;;10385244;28;20218;-74
2021/10/07 07:47:54;;;;;;;2.93;2.60;;;14.20;42.90;;;;;;10398962;28;20263;-74
2021/10/07 07:52:58;;;;;;;2.37;1.90;;;14.30;42.90;;;;;;10395443;28;20299;-73
2021/10/07 07:58:04;;;;;;;2.27;2.07;;;14.30;42.70;;;;;;10396986;28;20254;-74
2021/10/07 08:03:07;;;;;;;2.60;2.20;;;14.30;42.70;;;;;;10394300;28;20232;-74
2021/10/07 08:08:10;;;;;;;2.43;2.23;;;14.40;42.70;;;;;;10406122;28;20590;-75
2021/10/07 08:13:16;;;;;;;2.30;2.13;;;14.50;42.70;;;;;;10408506;28;20713;-75
2021/10/07 08:18:19;;;;;;;3.90;2.40;;;14.50;42.80;;;;;;10398820;28;20243;-72
2021/10/07 08:23:25;;;;;;;2.80;2.60;;;14.50;42.80;;;;;;10399357;28;20339;-73
2021/10/07 08:28:30;;;;;;;3.83;2.60;;;14.60;42.90;;;;;;10402585;28;20724;-73
2021/10/07 08:33:33;;;;;;;2.50;2.30;;;14.70;43.30;;;;;;10401594;28;20240;-73
2021/10/07 08:38:37;;;;;;;3.07;2.50;;;14.70;43.00;;;;;;10408156;28;20236;-73
2021/10/07 08:43:50;;;;;;;3.93;2.60;;;14.80;43.00;;;;;;10408378;28;20660;-72
2021/10/07 08:49:00;;;;;;;2.70;2.50;;;14.90;43.40;;;;;;10402092;28;20268;-74
2021/10/07 08:54:03;;;;;;;2.93;2.70;;;15.00;43.00;;;;;;10390097;28;20238;-74
2021/10/07 08:59:08;;;;;;;3.43;2.90;;;15.00;42.80;;;;;;10396061;28;20234;-73
2021/10/07 09:04:21;;;;;;;3.27;2.70;;;15.00;42.90;;;;;;10397799;28;20233;-74
2021/10/07 09:09:24;;;;;;;3.90;2.63;;;15.00;43.10;;;;;;10399821;28;20604;-73
2021/10/07 09:14:31;;;;;;;3.00;2.67;;;15.10;42.80;;;;;;10390434;28;20240;-74
2021/10/07 09:19:39;;;;;;;3.00;2.70;;;15.10;42.90;;;;;;10397748;28;20308;-74
2021/10/07 09:24:43;;;;;;;4.67;3.00;;;15.20;42.70;;;;;;10405096;28;20429;-73
2021/10/07 09:29:53;;;;;;;2.93;2.63;;;15.20;42.50;;;;;;10408961;28;20319;-72
2021/10/07 09:34:58;;;;;;;2.80;2.50;;;15.30;42.30;;;;;;10403591;28;20229;-72
2021/10/07 09:40:08;;;;;;;4.93;2.90;;;15.30;42.10;;;;;;10408919;28;20252;-72
2021/10/07 09:45:16;;;;;;;2.70;2.50;;;15.30;42.20;;;;;;10412462;28;20226;-71
2021/10/07 09:50:25;;;;;;;4.53;2.70;;;15.30;42.10;;;;;;10411955;28;20235;-72
2021/10/07 09:55:31;;;;;;;3.40;3.10;;;15.40;42.10;;;;;;10417428;28;20263;-72
2021/10/07 10:00:38;;;;;;;3.60;2.50;;;15.40;42.20;;;;;;10402178;28;20600;-74
2021/10/07 10:05:44;;;;;;;4.20;3.00;;;15.40;42.10;;;;;;10404156;28;20229;-72
2021/10/07 10:10:51;;;;;;;3.63;2.50;;;15.40;42.10;;;;;;10396166;28;20244;-73
2021/10/07 10:15:56;;;;;;;4.77;2.33;;;15.50;42.10;;;;;;10395824;28;20240;-73
2021/10/07 10:21:05;;;;;;;3.93;2.30;;;15.50;41.90;;;;;;10402939;28;20233;-73
2021/10/07 10:26:11;;;;;;;4.63;2.50;;;15.50;41.60;;;;;;10402504;28;20607;-73
2021/10/07 10:31:19;;;;;;;3.43;2.43;;;15.60;41.90;;;;;;10409660;28;20312;-73
2021/10/07 10:36:39;;;;;;;4.03;2.17;;;15.70;41.50;;;;;;10415662;28;20252;-73
2021/10/07 10:41:49;;;;;;;2.33;2.00;;;15.80;41.90;;;;;;10406849;28;20233;-73
2021/10/07 10:47:00;;;;;;;2.20;1.90;;;15.90;41.70;;;;;;10403487;28;20221;-73
2021/10/07 10:52:12;;;;;;;3.30;2.20;;;16.00;41.60;;;;;;10409468;28;20217;-72
2021/10/07 10:57:28;;;;;;;1.80;1.70;;;16.10;41.30;;;;;;10404099;28;20226;-71
2021/10/07 11:02:33;;;;;;;3.00;2.20;;;16.30;41.10;;;;;;10398750;28;20578;-73
2021/10/07 11:07:37;;;;;;;4.10;2.03;;;16.40;41.00;;;;;;10406363;28;20222;-73
2021/10/07 11:12:51;;;;;;;2.50;1.60;;;16.40;41.20;;;;;;10403712;28;20735;-71
2021/10/07 11:17:57;;;;;;;2.07;1.87;;;16.40;40.60;;;;;;10399744;28;20253;-73
2021/10/07 11:23:07;;;;;;;2.23;1.80;;;16.50;41.00;;;;;;10405733;28;20724;-72
2021/10/07 11:28:11;;;;;;;1.77;1.57;;;16.60;41.00;;;;;;10416154;28;20240;-73
2021/10/07 11:33:15;;;;;;;1.83;1.50;;;16.70;41.20;;;;;;10406976;28;20352;-74
2021/10/07 11:38:18;;;;;;;3.27;1.60;;;16.80;40.90;;;;;;10400918;28;20225;-74
2021/10/07 11:43:24;;;;;;;2.07;1.60;;;16.90;40.70;;;;;;10385279;28;20911;-75
2021/10/07 11:48:29;;;;;;;2.63;1.40;;;17.00;40.20;;;;;;10376233;28;20237;-75
2021/10/07 11:53:35;;;;;;;2.20;1.43;;;17.10;40.10;;;;;;10381429;28;20234;-75
2021/10/07 11:58:40;;;;;;;1.50;1.40;;;17.20;39.60;;;;;;10383315;28;20230;-75
2021/10/07 12:03:45;;;;;;;1.70;1.40;;;17.20;39.20;;;;;;10393622;28;20214;-75
2021/10/07 12:08:49;;;;;;;2.70;1.50;;;17.30;39.00;;;;;;10390556;28;20229;-75
2021/10/07 12:13:54;;;;;;;2.17;1.67;;;17.30;39.00;;;;;;10388365;28;20230;-75
2021/10/07 12:19:05;;;;;;;2.23;1.70;;;17.30;39.00;;;;;;10393772;28;20869;-75
2021/10/07 12:24:10;;;;;;;1.23;1.13;;;17.30;38.30;;;;;;10397805;28;20240;-75
2021/10/07 12:29:15;;;;;;;1.40;1.30;;;17.40;39.00;;;;;;10402087;28;20225;-75
2021/10/07 12:34:20;;;;;;;3.20;1.90;;;17.40;39.00;;;;;;10390843;28;20221;-75
2021/10/07 12:39:25;;;;;;;1.93;1.67;;;17.50;38.60;;;;;;10393869;28;20652;-74
2021/10/07 12:44:31;;;;;;;1.33;1.23;;;17.50;38.40;;;;;;10393996;28;20243;-75
2021/10/07 12:49:38;;;;;;;1.30;1.20;;;17.50;38.20;;;;;;10393440;28;20720;-75
2021/10/07 12:54:42;;;;;;;0.90;0.90;;;17.50;37.50;;;;;;10389867;28;20224;-75
2021/10/07 12:59:55;;;;;;;3.53;1.13;;;17.50;38.40;;;;;;10374982;28;20218;-75
2021/10/07 13:05:12;;;;;;;1.97;1.20;;;17.50;36.90;;;;;;10377197;28;20329;-76
2021/10/07 13:10:16;;;;;;;2.13;0.90;;;17.50;36.70;;;;;;10380593;28;20237;-76
2021/10/07 13:15:19;;;;;;;1.53;1.10;;;17.50;37.80;;;;;;10395871;28;20229;-74
2021/10/07 13:20:24;;;;;;;1.87;1.20;;;17.50;37.90;;;;;;10399183;28;20240;-74
2021/10/07 13:25:30;;;;;;;1.10;1.10;;;17.50;37.40;;;;;;10399571;28;20241;-74
2021/10/07 13:30:33;;;;;;;1.00;1.00;;;17.50;37.80;;;;;;10404411;28;20229;-75
2021/10/07 13:35:38;;;;;;;1.10;1.00;;;17.50;37.80;;;;;;10394436;28;20226;-75
2021/10/07 13:40:41;;;;;;;1.20;1.07;;;17.50;37.40;;;;;;10387860;28;20865;-74
2021/10/07 13:45:46;;;;;;;1.73;1.20;;;17.50;38.00;;;;;;10390908;28;20222;-74
2021/10/07 13:50:50;;;;;;;1.90;1.07;;;17.60;38.00;;;;;;10381570;28;20256;-76
2021/10/07 13:55:54;;;;;;;2.07;1.13;;;17.60;37.40;;;;;;10398765;28;20710;-74
2021/10/07 14:00:57;;;;;;;1.93;1.00;;;17.60;37.70;;;;;;10381439;28;20257;-75
2021/10/07 14:06:03;;;;;;;1.53;1.00;;;17.70;38.00;;;;;;10374982;28;20307;-75
2021/10/07 14:11:07;;;;;;;1.00;0.90;;;17.60;37.60;;;;;;10387503;28;20712;-75
2021/10/07 14:16:11;;;;;;;1.33;1.00;;;17.70;38.00;;;;;;10382432;28;20742;-75
2021/10/07 14:21:16;;;;;;;1.77;1.00;;;17.70;37.80;;;;;;10390127;28;20233;-75
2021/10/07 14:26:19;;;;;;;0.90;0.90;;;17.70;37.30;;;;;;10389036;28;20590;-75
2021/10/07 14:31:25;;;;;;;2.73;1.00;;;17.70;37.70;;;;;;10390089;28;20288;-74
2021/10/07 14:36:30;;;;;;;1.60;0.80;;;17.70;37.40;;;;;;10387834;28;20712;-74
2021/10/07 14:41:34;;;;;;;1.07;0.97;;;17.70;37.30;;;;;;10389363;28;20236;-74
2021/10/07 14:46:38;;;;;;;1.77;1.00;;;17.80;37.50;;;;;;10393842;28;20236;-74
2021/10/07 14:51:44;;;;;;;1.27;1.00;;;17.80;37.40;;;;;;10390641;28;20236;-74
2021/10/07 14:56:47;;;;;;;0.90;0.90;;;17.80;36.90;;;;;;10392468;28;22108;-74
2021/10/07 15:01:50;;;;;;;1.17;0.90;;;17.80;37.30;;;;;;10396772;28;20231;-73
2021/10/07 15:07:00;;;;;;;1.07;0.80;;;17.80;37.30;;;;;;10389551;28;20229;-74
2021/10/07 15:12:05;;;;;;;0.93;0.90;;;17.80;37.00;;;;;;10378689;28;20249;-73
2021/10/07 15:17:08;;;;;;;1.13;1.00;;;17.80;37.50;;;;;;10381331;28;20230;-73
2021/10/07 15:22:17;;;;;;;1.00;0.90;;;17.80;37.50;;;;;;10375671;28;20221;-72
2021/10/07 15:27:23;;;;;;;1.27;1.00;;;17.80;37.20;;;;;;10379425;28;20244;-72
2021/10/07 15:32:26;;;;;;;1.00;0.90;;;17.80;37.40;;;;;;10377579;28;20263;-73
2021/10/07 15:37:31;;;;;;;0.90;0.90;;;17.80;37.50;;;;;;10383887;28;20679;-73
2021/10/07 15:42:34;;;;;;;0.90;0.90;;;17.80;37.10;;;;;;10389538;28;20714;-73
2021/10/07 15:47:38;;;;;;;1.20;1.00;;;17.80;37.50;;;;;;10386941;28;20292;-74
2021/10/07 15:52:43;;;;;;;1.63;1.20;;;17.80;37.30;;;;;;10376448;28;20230;-73
2021/10/07 15:57:46;;;;;;;1.53;1.00;;;17.80;37.00;;;;;;10383876;28;20325;-73
2021/10/07 16:02:49;;;;;;;1.10;1.00;;;17.80;37.20;;;;;;10386910;28;20255;-73
2021/10/07 16:07:55;;;;;;;1.93;1.30;;;17.70;37.10;;;;;;10381122;28;20231;-73
2021/10/07 16:13:00;;;;;;;1.30;1.20;;;17.70;37.00;;;;;;10380786;28;20325;-73
2021/10/07 16:18:04;;;;;;;4.30;1.30;;;17.60;37.20;;;;;;10380262;28;20226;-73
2021/10/07 16:23:08;;;;;;;1.27;1.27;;;17.60;37.80;;;;;;10380967;28;20325;-73
2021/10/07 16:28:12;;;;;;;2.50;1.67;;;17.60;36.80;;;;;;10380653;28;20308;-73
2021/10/07 16:33:15;;;;;;;1.43;1.33;;;17.50;37.00;;;;;;10379409;28;20313;-73
2021/10/07 16:38:20;;;;;;;1.50;1.40;;;17.50;37.20;;;;;;10387599;28;20253;-73
2021/10/07 16:43:24;;;;;;;1.77;1.40;;;17.50;37.00;;;;;;10377499;28;20225;-73
2021/10/07 16:48:28;;;;;;;1.57;1.47;;;17.40;37.30;;;;;;10377952;28;20296;-73
2021/10/07 16:53:35;;;;;;;1.50;1.40;;;17.40;37.40;;;;;;10382770;28;20245;-73
2021/10/07 16:58:39;;;;;;;1.30;1.20;;;17.40;38.00;;;;;;10375967;28;20821;-73
2021/10/07 17:03:42;;;;;;;1.67;1.57;;;17.40;37.60;;;;;;10385537;28;20312;-73
2021/10/07 17:08:47;;;;;;;1.90;1.70;;;17.40;37.60;;;;;;10381162;28;20233;-73
2021/10/07 17:13:50;;;;;;;2.17;1.70;;;17.40;37.40;;;;;;10378832;28;20225;-73
2021/10/07 17:18:54;;;;;;;2.00;1.90;;;17.30;37.40;;;;;;10384144;28;20294;-73
2021/10/07 17:23:58;;;;;;;1.90;1.70;;;17.30;37.40;;;;;;10378304;28;20241;-73
2021/10/07 17:29:02;;;;;;;2.23;1.83;;;17.30;37.30;;;;;;10379260;28;20578;-72
2021/10/07 17:34:05;;;;;;;1.50;1.27;;;17.20;37.40;;;;;;10380534;28;20240;-73
2021/10/07 17:39:09;;;;;;;2.53;1.70;;;17.20;37.70;;;;;;10379246;28;20236;-73
2021/10/07 17:44:13;;;;;;;2.23;1.90;;;17.10;37.70;;;;;;10374321;28;20236;-73
2021/10/07 17:49:19;;;;;;;2.10;1.90;;;17.10;37.60;;;;;;10379880;28;20602;-73
2021/10/07 17:54:24;;;;;;;3.57;2.00;;;17.10;37.60;;;;;;10380437;28;20752;-73
2021/10/07 17:59:28;;;;;;;2.43;1.90;;;17.10;37.60;;;;;;10382598;28;20241;-73
2021/10/07 18:04:31;;;;;;;2.93;1.90;;;17.00;37.70;;;;;;10366623;28;20234;-72
2021/10/07 18:09:37;;;;;;;2.70;2.10;;;16.90;37.40;;;;;;10372581;28;20238;-73
2021/10/07 18:14:40;;;;;;;2.50;2.30;;;16.80;37.40;;;;;;10374353;28;20230;-73
2021/10/07 18:19:46;;;;;;;2.10;1.90;;;16.80;37.80;;;;;;10381599;28;20283;-73
2021/10/07 18:24:51;;;;;;;3.90;3.50;;;16.70;37.80;;;;;;10376226;28;20725;-75
2021/10/07 18:29:54;;;;;;;3.77;2.90;;;16.70;37.90;;;;;;10373878;28;20240;-74
2021/10/07 18:34:58;;;;;;;2.73;2.53;;;16.70;38.10;;;;;;10375169;28;20241;-75
2021/10/07 18:40:02;;;;;;;3.13;2.53;;;16.70;38.20;;;;;;10376893;28;20228;-74
2021/10/07 18:45:07;;;;;;;3.17;2.93;;;16.60;38.20;;;;;;10391150;28;20230;-75
2021/10/07 18:50:11;;;;;;;3.77;3.10;;;16.60;38.30;;;;;;10389664;28;20230;-75
2021/10/07 18:55:16;;;;;;;3.57;3.10;;;16.60;38.40;;;;;;10390972;28;20245;-74
2021/10/07 19:00:19;;;;;;;2.90;2.70;;;16.50;38.60;;;;;;10397011;28;20235;-75
2021/10/07 19:05:23;;;;;;;2.73;2.50;;;16.50;38.50;;;;;;10390963;28;20230;-75
2021/10/07 19:10:28;;;;;;;3.10;2.80;;;16.50;38.50;;;;;;10393488;28;20230;-75
2021/10/07 19:15:32;;;;;;;3.10;2.73;;;16.50;38.70;;;;;;10389842;28;20241;-74
2021/10/07 19:20:36;;;;;;;3.70;2.90;;;16.50;38.70;;;;;;10384878;28;20232;-75
2021/10/07 19:25:40;;;;;;;3.10;2.80;;;16.50;38.80;;;;;;10384793;28;20542;-73
2021/10/07 19:30:43;;;;;;;3.60;2.50;;;16.50;39.00;;;;;;10384460;28;20228;-73
2021/10/07 19:35:46;;;;;;;3.43;2.70;;;16.50;39.10;;;;;;10385773;28;20250;-74
2021/10/07 19:40:51;;;;;;;3.20;2.90;;;16.50;39.20;;;;;;10386409;28;20244;-75
2021/10/07 19:45:54;;;;;;;3.20;2.87;;;16.50;39.50;;;;;;10390380;28;20229;-76
2021/10/07 19:50:59;;;;;;;3.00;2.80;;;16.50;39.30;;;;;;10392554;28;20283;-73
2021/10/07 19:56:04;;;;;;;3.00;2.80;;;16.50;39.50;;;;;;10390069;28;20227;-74
2021/10/07 20:01:07;;;;;;;3.10;2.80;;;16.50;39.60;;;;;;10392751;28;20308;-73
2021/10/07 20:06:10;;;;;;;3.10;2.80;;;16.40;39.50;;;;;;10388623;28;20234;-74
2021/10/07 20:11:15;;;;;;;2.53;2.33;;;16.40;39.50;;;;;;10391637;28;20232;-73
2021/10/07 20:16:18;;;;;;;2.47;2.27;;;16.40;39.60;;;;;;10391450;28;20237;-73
2021/10/07 20:21:21;;;;;;;2.80;2.53;;;16.40;39.50;;;;;;10397725;28;20652;-74
2021/10/07 20:26:26;;;;;;;3.37;2.40;;;16.40;39.60;;;;;;10392319;28;20229;-73
2021/10/07 20:31:33;;;;;;;3.77;3.00;;;16.40;39.80;;;;;;10386010;28;20240;-75
2021/10/07 20:41:59;;;;;;;3.30;3.00;;;16.30;39.80;;;;;;10390412;28;20248;-75
2021/10/07 20:47:04;;;;;;;2.97;2.77;;;16.30;40.00;;;;;;10392257;28;20264;-74
2021/10/07 20:52:08;;;;;;;3.17;2.87;;;16.30;40.00;;;;;;10385926;28;20242;-74
2021/10/07 20:57:13;;;;;;;3.40;3.10;;;16.30;40.00;;;;;;10382221;28;20226;-75
2021/10/07 21:02:17;;;;;;;2.87;2.67;;;16.30;40.30;;;;;;10384237;28;20706;-73
2021/10/07 21:07:20;;;;;;;4.00;3.70;;;16.20;40.00;;;;;;10387665;28;20225;-74
2021/10/07 21:12:25;;;;;;;4.33;3.93;;;16.20;39.90;;;;;;10392484;28;20312;-74
2021/10/07 21:17:28;;;;;;;4.07;3.67;;;16.20;40.20;;;;;;10390815;28;20230;-74
2021/10/07 21:22:31;;;;;;;3.40;3.10;;;16.20;40.10;;;;;;10388084;28;20222;-74
2021/10/07 21:27:37;;;;;;;3.70;3.40;;;16.20;40.20;;;;;;10471044;23;20240;-74
2021/10/07 21:32:41;;;;;;;3.30;3.00;;;16.20;40.40;;;;;;10477128;28;20224;-75
2021/10/07 21:37:45;;;;;;;3.73;3.43;;;16.20;40.40;;;;;;10448783;28;20259;-74
2021/10/07 21:42:51;;;;;;;3.37;3.00;;;16.20;40.40;;;;;;10447150;28;20228;-75
2021/10/07 21:47:54;;;;;;;2.80;2.60;;;16.20;40.70;;;;;;10447722;28;20316;-74
2021/10/07 21:52:58;;;;;;;3.10;2.90;;;16.20;40.50;;;;;;10441258;28;20228;-75
2021/10/07 21:58:04;;;;;;;3.13;2.83;;;16.20;40.50;;;;;;10444209;28;20320;-74
2021/10/07 22:03:08;;;;;;;2.50;2.30;;;16.10;40.60;;;;;;10446342;28;20327;-74
2021/10/07 22:08:11;;;;;;;3.23;2.60;;;16.20;40.50;;;;;;10450340;28;20970;-74
2021/10/07 22:13:16;;;;;;;2.93;2.73;;;16.20;40.50;;;;;;10444865;28;20596;-74
2021/10/07 22:18:19;;;;;;;3.50;2.87;;;16.10;40.60;;;;;;10442529;28;20722;-74
2021/10/07 22:23:22;;;;;;;3.67;2.83;;;16.10;40.40;;;;;;10445877;28;20239;-74
2021/10/07 22:28:28;;;;;;;3.37;2.67;;;16.10;40.50;;;;;;10443610;28;20225;-74
2021/10/07 22:33:31;;;;;;;3.40;3.10;;;16.10;40.60;;;;;;10433430;28;20726;-74
2021/10/07 22:38:35;;;;;;;3.00;2.67;;;16.20;40.60;;;;;;10443468;28;20224;-74
2021/10/07 22:43:39;;;;;;;3.30;3.10;;;16.20;40.50;;;;;;10450231;28;20223;-74
2021/10/07 22:48:42;;;;;;;3.80;2.90;;;16.20;40.90;;;;;;10449288;28;20241;-74
2021/10/07 22:53:46;;;;;;;3.27;2.63;;;16.20;40.60;;;;;;10445529;28;20304;-74
2021/10/07 22:58:50;;;;;;;3.03;2.63;;;16.10;40.60;;;;;;10443359;28;20244;-74
2021/10/07 23:03:53;;;;;;;3.07;2.80;;;16.10;40.90;;;;;;10447351;28;20243;-74
2021/10/07 23:08:57;;;;;;;3.07;2.77;;;16.10;40.80;;;;;;10446967;28;20226;-74
2021/10/07 23:14:01;;;;;;;3.67;2.57;;;16.00;40.60;;;;;;10441578;28;20229;-74
2021/10/07 23:19:04;;;;;;;2.90;2.70;;;16.00;40.60;;;;;;10452554;28;20787;-74
2021/10/07 23:24:07;;;;;;;2.70;2.50;;;16.00;40.50;;;;;;10456245;28;20228;-74
2021/10/07 23:29:12;;;;;;;2.70;2.30;;;16.00;40.60;;;;;;10455927;28;20775;-74
2021/10/07 23:34:15;;;;;;;4.13;2.63;;;16.00;40.90;;;;;;10457873;28;20239;-74
2021/10/07 23:39:19;;;;;;;4.27;2.30;;;16.00;40.70;;;;;;10451667;28;20225;-74
2021/10/07 23:44:23;;;;;;;2.80;2.60;;;16.00;40.80;;;;;;10450716;28;20267;-74
2021/10/07 23:49:27;;;;;;;3.07;2.53;;;16.00;41.10;;;;;;10462589;28;20224;-74
2021/10/07 23:54:30;;;;;;;5.00;2.50;;;16.00;41.00;;;;;;10444398;28;20234;-74
2021/10/07 23:59:34;;;;;;;2.80;2.60;;;16.00;40.80;;;;;;10446048;28;20229;-74
